sensor_id;sensor_type;location;lat;lon;timestamp;temperature;humidity
2389;DHT22;1205;47.984;7.668;2023-03-14T00:00:34;11.60;99.90
2389;DHT22;1205;47.984;7.668;2023-03-14T00:03:00;11.60;99.90
2389;DHT22;1205;47.984;7.668;2023-03-14T00:05:26;11.60;99.90
2389;DHT22;1205;47.984;7.668;2023-03-14T00:07:51;11.60;99.90
2389;DHT22;1205;47.984;7.668;2023-03-14T00:10:17;11.70;99.90
2389;DHT22;1205;47.984;7.668;2023-03-14T00:12:44;11.70;99.90
2389;DHT22;1205;47.984;7.668;2023-03-14T00:15:10;11.70;99.90
2389;DHT22;1205;47.984;7.668;2023-03-14T00:17:36;11.80;99.90
2389;DHT22;1205;47.984;7.668;2023-03-14T00:20:03;11.80;99.90
2389;DHT22;1205;47.984;7.668;2023-03-14T00:22:37;11.80;99.90
2389;DHT22;1205;47.984;7.668;2023-03-14T00:25:04;11.80;99.90
2389;DHT22;1205;47.984;7.668;2023-03-14T00:27:30;11.80;99.90
2389;DHT22;1205;47.984;7.668;2023-03-14T00:29:56;11.80;99.90
2389;DHT22;1205;47.984;7.668;2023-03-14T00:32:21;11.80;99.90
2389;DHT22;1205;47.984;7.668;2023-03-14T00:34:47;11.80;99.90
2389;DHT22;1205;47.984;7.668;2023-03-14T00:37:12;11.80;99.90
2389;DHT22;1205;47.984;7.668;2023-03-14T00:39:38;11.90;99.90
2389;DHT22;1205;47.984;7.668;2023-03-14T00:42:04;11.90;99.90
2389;DHT22;1205;47.984;7.668;2023-03-14T00:44:29;11.90;99.90
2389;DHT22;1205;47.984;7.668;2023-03-14T00:46:55;11.90;99.90
2389;DHT22;1205;47.984;7.668;2023-03-14T00:49:20;11.90;99.90
2389;DHT22;1205;47.984;7.668;2023-03-14T00:51:46;11.80;99.90
2389;DHT22;1205;47.984;7.668;2023-03-14T00:54:12;11.80;99.90
2389;DHT22;1205;47.984;7.668;2023-03-14T00:56:37;11.80;99.90
2389;DHT22;1205;47.984;7.668;2023-03-14T00:59:03;11.80;99.90
2389;DHT22;1205;47.984;7.668;2023-03-14T01:01:28;11.80;99.90
2389;DHT22;1205;47.984;7.668;2023-03-14T01:03:55;11.80;99.90
2389;DHT22;1205;47.984;7.668;2023-03-14T01:06:26;11.70;99.90
2389;DHT22;1205;47.984;7.668;2023-03-14T01:08:52;11.70;99.90
2389;DHT22;1205;47.984;7.668;2023-03-14T01:11:24;11.70;99.90
2389;DHT22;1205;47.984;7.668;2023-03-14T01:13:50;11.70;99.90
2389;DHT22;1205;47.984;7.668;2023-03-14T01:16:18;11.70;99.90
2389;DHT22;1205;47.984;7.668;2023-03-14T01:18:44;11.60;99.90
2389;DHT22;1205;47.984;7.668;2023-03-14T01:21:13;11.60;99.90
2389;DHT22;1205;47.984;7.668;2023-03-14T01:23:40;11.70;99.90
2389;DHT22;1205;47.984;7.668;2023-03-14T01:26:09;11.70;99.90
2389;DHT22;1205;47.984;7.668;2023-03-14T01:28:35;11.60;99.90
2389;DHT22;1205;47.984;7.668;2023-03-14T01:31:09;11.60;99.90
2389;DHT22;1205;47.984;7.668;2023-03-14T01:33:35;11.50;99.90
2389;DHT22;1205;47.984;7.668;2023-03-14T01:36:01;11.40;99.90
2389;DHT22;1205;47.984;7.668;2023-03-14T01:38:28;11.40;99.90
2389;DHT22;1205;47.984;7.668;2023-03-14T01:40:54;11.50;99.90
2389;DHT22;1205;47.984;7.668;2023-03-14T01:43:20;11.50;99.90
2389;DHT22;1205;47.984;7.668;2023-03-14T01:54:21;11.30;99.90
2389;DHT22;1205;47.984;7.668;2023-03-14T01:56:53;11.30;99.90
2389;DHT22;1205;47.984;7.668;2023-03-14T01:59:20;11.30;99.90
2389;DHT22;1205;47.984;7.668;2023-03-14T02:01:47;11.40;99.90
2389;DHT22;1205;47.984;7.668;2023-03-14T02:04:14;11.40;99.90
2389;DHT22;1205;47.984;7.668;2023-03-14T02:07:22;11.40;99.90
2389;DHT22;1205;47.984;7.668;2023-03-14T02:09:48;11.40;99.90
2389;DHT22;1205;47.984;7.668;2023-03-14T02:12:16;11.40;99.90
2389;DHT22;1205;47.984;7.668;2023-03-14T02:14:43;11.40;99.90
2389;DHT22;1205;47.984;7.668;2023-03-14T02:17:14;11.40;99.90
2389;DHT22;1205;47.984;7.668;2023-03-14T02:22:24;11.40;99.90
2389;DHT22;1205;47.984;7.668;2023-03-14T02:25:08;11.40;99.90
2389;DHT22;1205;47.984;7.668;2023-03-14T02:27:38;11.40;99.90
2389;DHT22;1205;47.984;7.668;2023-03-14T02:30:16;11.40;99.90
2389;DHT22;1205;47.984;7.668;2023-03-14T02:32:46;11.40;99.90
2389;DHT22;1205;47.984;7.668;2023-03-14T02:35:15;11.40;99.90
2389;DHT22;1205;47.984;7.668;2023-03-14T02:40:12;11.40;99.90
2389;DHT22;1205;47.984;7.668;2023-03-14T02:42:38;11.50;99.90
2389;DHT22;1205;47.984;7.668;2023-03-14T02:47:37;11.30;99.90
2389;DHT22;1205;47.984;7.668;2023-03-14T02:50:12;11.40;99.90
2389;DHT22;1205;47.984;7.668;2023-03-14T02:52:38;11.40;99.90
2389;DHT22;1205;47.984;7.668;2023-03-14T02:55:04;11.30;99.90
2389;DHT22;1205;47.984;7.668;2023-03-14T02:57:29;11.40;99.90
2389;DHT22;1205;47.984;7.668;2023-03-14T02:59:58;11.30;99.90
2389;DHT22;1205;47.984;7.668;2023-03-14T03:02:25;11.40;99.90
2389;DHT22;1205;47.984;7.668;2023-03-14T03:04:50;11.30;99.90
2389;DHT22;1205;47.984;7.668;2023-03-14T03:07:16;11.40;99.90
2389;DHT22;1205;47.984;7.668;2023-03-14T03:09:42;11.30;99.90
2389;DHT22;1205;47.984;7.668;2023-03-14T03:12:07;11.30;99.90
2389;DHT22;1205;47.984;7.668;2023-03-14T03:14:33;11.30;99.90
2389;DHT22;1205;47.984;7.668;2023-03-14T03:16:58;11.40;99.90
2389;DHT22;1205;47.984;7.668;2023-03-14T03:19:24;11.40;99.90
2389;DHT22;1205;47.984;7.668;2023-03-14T03:21:49;11.30;99.90
2389;DHT22;1205;47.984;7.668;2023-03-14T03:24:15;11.40;99.90
2389;DHT22;1205;47.984;7.668;2023-03-14T03:26:41;11.30;99.90
2389;DHT22;1205;47.984;7.668;2023-03-14T03:29:06;11.30;99.90
2389;DHT22;1205;47.984;7.668;2023-03-14T03:31:32;11.30;99.90
2389;DHT22;1205;47.984;7.668;2023-03-14T03:33:57;11.40;99.90
2389;DHT22;1205;47.984;7.668;2023-03-14T03:36:24;11.40;99.90
2389;DHT22;1205;47.984;7.668;2023-03-14T03:38:50;11.30;99.90
2389;DHT22;1205;47.984;7.668;2023-03-14T03:41:16;11.40;99.90
2389;DHT22;1205;47.984;7.668;2023-03-14T03:43:42;11.30;99.90
2389;DHT22;1205;47.984;7.668;2023-03-14T03:46:07;11.30;99.90
2389;DHT22;1205;47.984;7.668;2023-03-14T03:48:34;11.30;99.90
2389;DHT22;1205;47.984;7.668;2023-03-14T03:50:59;11.20;99.90
2389;DHT22;1205;47.984;7.668;2023-03-14T03:53:25;11.20;99.90
2389;DHT22;1205;47.984;7.668;2023-03-14T03:55:51;11.20;99.90
2389;DHT22;1205;47.984;7.668;2023-03-14T03:58:16;11.20;99.90
2389;DHT22;1205;47.984;7.668;2023-03-14T04:00:42;11.20;99.90
2389;DHT22;1205;47.984;7.668;2023-03-14T04:03:07;11.30;99.90
2389;DHT22;1205;47.984;7.668;2023-03-14T04:05:33;11.20;99.90
2389;DHT22;1205;47.984;7.668;2023-03-14T04:08:00;11.20;99.90
2389;DHT22;1205;47.984;7.668;2023-03-14T04:10:25;11.30;99.90
2389;DHT22;1205;47.984;7.668;2023-03-14T04:12:51;11.20;99.90
2389;DHT22;1205;47.984;7.668;2023-03-14T04:15:17;11.30;99.90
2389;DHT22;1205;47.984;7.668;2023-03-14T04:17:43;11.30;99.90
2389;DHT22;1205;47.984;7.668;2023-03-14T04:20:09;11.30;99.90
2389;DHT22;1205;47.984;7.668;2023-03-14T04:22:37;11.30;99.90
2389;DHT22;1205;47.984;7.668;2023-03-14T04:25:03;11.20;99.90
2389;DHT22;1205;47.984;7.668;2023-03-14T04:27:29;11.20;99.90
2389;DHT22;1205;47.984;7.668;2023-03-14T04:29:54;11.10;99.90
2389;DHT22;1205;47.984;7.668;2023-03-14T04:32:20;11.10;99.90
2389;DHT22;1205;47.984;7.668;2023-03-14T04:34:46;11.00;99.90
2389;DHT22;1205;47.984;7.668;2023-03-14T04:37:11;11.00;99.90
2389;DHT22;1205;47.984;7.668;2023-03-14T04:39:37;10.90;99.90
2389;DHT22;1205;47.984;7.668;2023-03-14T04:42:02;10.90;99.90
2389;DHT22;1205;47.984;7.668;2023-03-14T04:44:28;10.90;99.90
2389;DHT22;1205;47.984;7.668;2023-03-14T04:46:54;10.90;99.90
2389;DHT22;1205;47.984;7.668;2023-03-14T04:49:19;10.90;99.90
2389;DHT22;1205;47.984;7.668;2023-03-14T04:51:45;10.80;99.90
2389;DHT22;1205;47.984;7.668;2023-03-14T04:54:10;10.80;99.90
2389;DHT22;1205;47.984;7.668;2023-03-14T04:56:36;11.50;99.90
2389;DHT22;1205;47.984;7.668;2023-03-14T04:59:02;11.50;99.90
2389;DHT22;1205;47.984;7.668;2023-03-14T05:01:28;11.20;99.90
2389;DHT22;1205;47.984;7.668;2023-03-14T05:03:54;11.10;99.90
2389;DHT22;1205;47.984;7.668;2023-03-14T05:06:19;11.00;99.90
2389;DHT22;1205;47.984;7.668;2023-03-14T05:08:45;10.90;99.90
2389;DHT22;1205;47.984;7.668;2023-03-14T05:11:11;10.90;99.90
2389;DHT22;1205;47.984;7.668;2023-03-14T05:13:38;10.80;99.90
2389;DHT22;1205;47.984;7.668;2023-03-14T05:16:08;10.90;99.90
2389;DHT22;1205;47.984;7.668;2023-03-14T05:18:35;10.80;99.90
2389;DHT22;1205;47.984;7.668;2023-03-14T05:21:00;10.70;99.90
2389;DHT22;1205;47.984;7.668;2023-03-14T05:23:26;10.70;99.90
2389;DHT22;1205;47.984;7.668;2023-03-14T05:25:52;10.60;99.90
2389;DHT22;1205;47.984;7.668;2023-03-14T05:28:18;10.60;99.90
2389;DHT22;1205;47.984;7.668;2023-03-14T05:30:43;10.60;99.90
2389;DHT22;1205;47.984;7.668;2023-03-14T05:33:09;10.60;99.90
2389;DHT22;1205;47.984;7.668;2023-03-14T05:35:34;10.50;99.90
2389;DHT22;1205;47.984;7.668;2023-03-14T05:38:00;10.50;99.90
2389;DHT22;1205;47.984;7.668;2023-03-14T05:40:25;10.50;99.90
2389;DHT22;1205;47.984;7.668;2023-03-14T05:42:51;10.40;99.90
2389;DHT22;1205;47.984;7.668;2023-03-14T05:45:17;10.50;99.90
2389;DHT22;1205;47.984;7.668;2023-03-14T05:47:43;10.40;99.90
2389;DHT22;1205;47.984;7.668;2023-03-14T05:50:09;10.50;99.90
2389;DHT22;1205;47.984;7.668;2023-03-14T05:52:35;10.50;99.90
2389;DHT22;1205;47.984;7.668;2023-03-14T05:55:01;10.50;99.90
2389;DHT22;1205;47.984;7.668;2023-03-14T05:57:26;10.50;99.90
2389;DHT22;1205;47.984;7.668;2023-03-14T05:59:52;10.50;99.90
2389;DHT22;1205;47.984;7.668;2023-03-14T06:02:17;10.50;99.90
2389;DHT22;1205;47.984;7.668;2023-03-14T06:04:43;10.60;99.90
2389;DHT22;1205;47.984;7.668;2023-03-14T06:07:08;10.60;99.90
2389;DHT22;1205;47.984;7.668;2023-03-14T06:09:34;10.70;99.90
2389;DHT22;1205;47.984;7.668;2023-03-14T06:11:59;10.70;99.90
2389;DHT22;1205;47.984;7.668;2023-03-14T06:14:25;10.80;99.90
2389;DHT22;1205;47.984;7.668;2023-03-14T06:16:51;10.80;99.90
2389;DHT22;1205;47.984;7.668;2023-03-14T06:19:17;10.80;99.90
2389;DHT22;1205;47.984;7.668;2023-03-14T06:21:43;10.80;99.90
2389;DHT22;1205;47.984;7.668;2023-03-14T06:24:09;10.90;99.90
2389;DHT22;1205;47.984;7.668;2023-03-14T06:26:34;10.90;99.90
2389;DHT22;1205;47.984;7.668;2023-03-14T06:29:00;11.00;99.90
2389;DHT22;1205;47.984;7.668;2023-03-14T06:31:29;11.10;99.90
2389;DHT22;1205;47.984;7.668;2023-03-14T06:33:55;11.10;99.90
2389;DHT22;1205;47.984;7.668;2023-03-14T06:36:21;11.20;99.90
2389;DHT22;1205;47.984;7.668;2023-03-14T06:38:46;11.20;99.90
2389;DHT22;1205;47.984;7.668;2023-03-14T06:41:12;11.30;99.90
2389;DHT22;1205;47.984;7.668;2023-03-14T06:43:37;11.40;99.90
2389;DHT22;1205;47.984;7.668;2023-03-14T06:46:03;11.50;99.90
2389;DHT22;1205;47.984;7.668;2023-03-14T06:48:29;11.50;99.90
2389;DHT22;1205;47.984;7.668;2023-03-14T06:50:55;11.60;99.90
2389;DHT22;1205;47.984;7.668;2023-03-14T06:53:20;11.60;99.90
2389;DHT22;1205;47.984;7.668;2023-03-14T06:55:46;11.70;99.90
2389;DHT22;1205;47.984;7.668;2023-03-14T06:58:11;11.70;99.90
2389;DHT22;1205;47.984;7.668;2023-03-14T07:00:37;11.80;99.90
2389;DHT22;1205;47.984;7.668;2023-03-14T07:03:02;11.90;99.90
2389;DHT22;1205;47.984;7.668;2023-03-14T07:05:28;12.00;99.90
2389;DHT22;1205;47.984;7.668;2023-03-14T07:07:54;12.00;99.90
2389;DHT22;1205;47.984;7.668;2023-03-14T07:10:19;12.00;99.90
2389;DHT22;1205;47.984;7.668;2023-03-14T07:12:45;12.10;99.90
2389;DHT22;1205;47.984;7.668;2023-03-14T07:15:11;12.20;99.90
2389;DHT22;1205;47.984;7.668;2023-03-14T07:17:36;12.30;99.90
2389;DHT22;1205;47.984;7.668;2023-03-14T07:20:03;12.10;99.90
2389;DHT22;1205;47.984;7.668;2023-03-14T07:22:30;12.10;99.90
2389;DHT22;1205;47.984;7.668;2023-03-14T07:24:55;12.00;99.90
2389;DHT22;1205;47.984;7.668;2023-03-14T07:27:21;12.00;99.90
2389;DHT22;1205;47.984;7.668;2023-03-14T07:29:47;12.10;99.90
2389;DHT22;1205;47.984;7.668;2023-03-14T07:32:12;12.00;99.90
2389;DHT22;1205;47.984;7.668;2023-03-14T07:34:41;12.00;99.90
2389;DHT22;1205;47.984;7.668;2023-03-14T07:37:07;12.20;99.90
2389;DHT22;1205;47.984;7.668;2023-03-14T07:39:32;12.10;99.90
2389;DHT22;1205;47.984;7.668;2023-03-14T07:41:58;12.20;99.90
2389;DHT22;1205;47.984;7.668;2023-03-14T07:44:23;12.30;99.90
2389;DHT22;1205;47.984;7.668;2023-03-14T07:46:49;12.20;99.90
2389;DHT22;1205;47.984;7.668;2023-03-14T07:49:14;12.10;99.90
2389;DHT22;1205;47.984;7.668;2023-03-14T07:51:40;12.10;99.90
2389;DHT22;1205;47.984;7.668;2023-03-14T07:54:05;12.10;99.90
2389;DHT22;1205;47.984;7.668;2023-03-14T07:56:31;12.00;99.90
2389;DHT22;1205;47.984;7.668;2023-03-14T07:58:57;12.10;99.90
2389;DHT22;1205;47.984;7.668;2023-03-14T08:01:22;12.00;99.90
2389;DHT22;1205;47.984;7.668;2023-03-14T08:03:48;11.80;99.90
2389;DHT22;1205;47.984;7.668;2023-03-14T08:06:13;11.70;99.90
2389;DHT22;1205;47.984;7.668;2023-03-14T08:08:39;11.70;99.90
2389;DHT22;1205;47.984;7.668;2023-03-14T08:11:06;11.60;99.90
2389;DHT22;1205;47.984;7.668;2023-03-14T08:13:34;11.60;99.90
2389;DHT22;1205;47.984;7.668;2023-03-14T08:16:00;11.70;99.90
2389;DHT22;1205;47.984;7.668;2023-03-14T08:18:25;11.70;99.90
2389;DHT22;1205;47.984;7.668;2023-03-14T08:20:51;11.50;99.90
2389;DHT22;1205;47.984;7.668;2023-03-14T08:23:16;11.50;99.90
2389;DHT22;1205;47.984;7.668;2023-03-14T08:25:42;11.50;99.90
2389;DHT22;1205;47.984;7.668;2023-03-14T08:28:08;11.50;99.90
2389;DHT22;1205;47.984;7.668;2023-03-14T08:30:34;11.60;99.90
2389;DHT22;1205;47.984;7.668;2023-03-14T08:32:59;11.60;99.90
2389;DHT22;1205;47.984;7.668;2023-03-14T08:35:26;11.70;99.90
2389;DHT22;1205;47.984;7.668;2023-03-14T08:37:51;11.70;99.90
2389;DHT22;1205;47.984;7.668;2023-03-14T08:40:17;11.70;99.90
2389;DHT22;1205;47.984;7.668;2023-03-14T08:42:43;11.80;99.90
2389;DHT22;1205;47.984;7.668;2023-03-14T08:45:11;11.80;99.90
2389;DHT22;1205;47.984;7.668;2023-03-14T08:47:37;11.80;99.90
2389;DHT22;1205;47.984;7.668;2023-03-14T08:50:04;11.80;99.90
2389;DHT22;1205;47.984;7.668;2023-03-14T08:52:31;11.90;99.90
2389;DHT22;1205;47.984;7.668;2023-03-14T08:54:57;11.90;99.90
2389;DHT22;1205;47.984;7.668;2023-03-14T08:57:23;12.00;99.90
2389;DHT22;1205;47.984;7.668;2023-03-14T08:59:53;12.10;99.90
2389;DHT22;1205;47.984;7.668;2023-03-14T09:02:19;12.20;99.90
2389;DHT22;1205;47.984;7.668;2023-03-14T09:04:45;12.10;99.90
2389;DHT22;1205;47.984;7.668;2023-03-14T09:07:10;12.20;99.90
2389;DHT22;1205;47.984;7.668;2023-03-14T09:09:36;12.20;99.90
2389;DHT22;1205;47.984;7.668;2023-03-14T09:12:02;12.10;99.90
2389;DHT22;1205;47.984;7.668;2023-03-14T09:14:27;12.20;99.90
2389;DHT22;1205;47.984;7.668;2023-03-14T09:16:54;12.10;99.90
2389;DHT22;1205;47.984;7.668;2023-03-14T09:19:21;12.20;99.90
2389;DHT22;1205;47.984;7.668;2023-03-14T09:21:46;12.10;99.90
2389;DHT22;1205;47.984;7.668;2023-03-14T09:24:12;12.00;99.90
2389;DHT22;1205;47.984;7.668;2023-03-14T09:26:37;11.90;99.90
2389;DHT22;1205;47.984;7.668;2023-03-14T09:29:03;12.00;99.90
2389;DHT22;1205;47.984;7.668;2023-03-14T09:31:29;11.90;99.90
2389;DHT22;1205;47.984;7.668;2023-03-14T09:33:55;11.90;99.90
2389;DHT22;1205;47.984;7.668;2023-03-14T09:36:20;11.90;99.90
2389;DHT22;1205;47.984;7.668;2023-03-14T09:38:46;11.80;99.90
2389;DHT22;1205;47.984;7.668;2023-03-14T09:41:23;11.90;99.90
2389;DHT22;1205;47.984;7.668;2023-03-14T09:43:56;11.80;99.90
2389;DHT22;1205;47.984;7.668;2023-03-14T09:46:24;11.80;99.90
2389;DHT22;1205;47.984;7.668;2023-03-14T09:48:49;11.80;99.90
2389;DHT22;1205;47.984;7.668;2023-03-14T09:51:17;11.60;99.90
2389;DHT22;1205;47.984;7.668;2023-03-14T09:53:49;11.70;99.90
2389;DHT22;1205;47.984;7.668;2023-03-14T09:56:26;11.60;99.90
2389;DHT22;1205;47.984;7.668;2023-03-14T09:58:58;11.70;99.90
2389;DHT22;1205;47.984;7.668;2023-03-14T10:01:30;11.60;99.90
2389;DHT22;1205;47.984;7.668;2023-03-14T10:03:58;11.60;99.90
2389;DHT22;1205;47.984;7.668;2023-03-14T10:06:30;11.70;99.90
2389;DHT22;1205;47.984;7.668;2023-03-14T10:08:56;11.80;99.90
2389;DHT22;1205;47.984;7.668;2023-03-14T10:11:23;11.70;99.90
2389;DHT22;1205;47.984;7.668;2023-03-14T10:16:48;11.80;99.90
2389;DHT22;1205;47.984;7.668;2023-03-14T10:19:17;11.70;99.90
2389;DHT22;1205;47.984;7.668;2023-03-14T10:21:44;11.70;99.90
2389;DHT22;1205;47.984;7.668;2023-03-14T10:24:29;11.70;99.90
2389;DHT22;1205;47.984;7.668;2023-03-14T10:27:05;11.60;99.90
2389;DHT22;1205;47.984;7.668;2023-03-14T10:29:32;11.60;99.90
2389;DHT22;1205;47.984;7.668;2023-03-14T10:31:59;11.60;99.90
2389;DHT22;1205;47.984;7.668;2023-03-14T10:34:33;11.50;99.90
2389;DHT22;1205;47.984;7.668;2023-03-14T10:37:22;11.50;99.90
2389;DHT22;1205;47.984;7.668;2023-03-14T10:39:53;11.60;99.90
2389;DHT22;1205;47.984;7.668;2023-03-14T10:42:29;11.60;99.90
2389;DHT22;1205;47.984;7.668;2023-03-14T10:45:02;11.50;99.90
2389;DHT22;1205;47.984;7.668;2023-03-14T10:47:29;11.70;99.90
2389;DHT22;1205;47.984;7.668;2023-03-14T10:49:56;11.80;99.90
2389;DHT22;1205;47.984;7.668;2023-03-14T10:52:27;11.80;99.90
2389;DHT22;1205;47.984;7.668;2023-03-14T10:55:02;12.00;99.90
2389;DHT22;1205;47.984;7.668;2023-03-14T10:57:28;12.00;99.90
2389;DHT22;1205;47.984;7.668;2023-03-14T10:59:56;11.90;99.90
2389;DHT22;1205;47.984;7.668;2023-03-14T11:05:29;11.80;99.90
2389;DHT22;1205;47.984;7.668;2023-03-14T11:08:06;12.40;99.90
2389;DHT22;1205;47.984;7.668;2023-03-14T11:10:35;12.20;99.90
2389;DHT22;1205;47.984;7.668;2023-03-14T11:13:14;12.00;99.90
2389;DHT22;1205;47.984;7.668;2023-03-14T11:15:51;12.00;99.90
2389;DHT22;1205;47.984;7.668;2023-03-14T11:29:22;10.60;99.90
2389;DHT22;1205;47.984;7.668;2023-03-14T11:31:55;10.10;99.90
2389;DHT22;1205;47.984;7.668;2023-03-14T11:34:36;9.90;99.90
2389;DHT22;1205;47.984;7.668;2023-03-14T11:37:14;9.80;99.90
2389;DHT22;1205;47.984;7.668;2023-03-14T11:39:44;9.60;99.90
2389;DHT22;1205;47.984;7.668;2023-03-14T11:42:14;9.70;99.90
2389;DHT22;1205;47.984;7.668;2023-03-14T11:44:40;9.80;99.90
2389;DHT22;1205;47.984;7.668;2023-03-14T11:50:02;9.80;99.90
2389;DHT22;1205;47.984;7.668;2023-03-14T11:52:38;9.80;99.90
2389;DHT22;1205;47.984;7.668;2023-03-14T11:57:39;9.90;99.90
2389;DHT22;1205;47.984;7.668;2023-03-14T12:00:18;9.90;99.90
2389;DHT22;1205;47.984;7.668;2023-03-14T12:08:10;10.10;99.90
2389;DHT22;1205;47.984;7.668;2023-03-14T12:10:51;10.30;99.90
2389;DHT22;1205;47.984;7.668;2023-03-14T12:13:18;10.40;99.90
2389;DHT22;1205;47.984;7.668;2023-03-14T12:16:00;10.40;99.90
2389;DHT22;1205;47.984;7.668;2023-03-14T12:18:33;10.30;99.90
2389;DHT22;1205;47.984;7.668;2023-03-14T12:21:01;10.40;99.90
2389;DHT22;1205;47.984;7.668;2023-03-14T12:23:56;10.50;99.90
2389;DHT22;1205;47.984;7.668;2023-03-14T12:26:28;10.50;98.70
2389;DHT22;1205;47.984;7.668;2023-03-14T12:29:15;10.50;99.10
2389;DHT22;1205;47.984;7.668;2023-03-14T12:31:51;10.60;99.20
2389;DHT22;1205;47.984;7.668;2023-03-14T12:34:41;10.80;98.60
2389;DHT22;1205;47.984;7.668;2023-03-14T12:37:19;11.00;97.90
2389;DHT22;1205;47.984;7.668;2023-03-14T12:42:50;11.00;98.10
2389;DHT22;1205;47.984;7.668;2023-03-14T12:45:31;11.00;98.60
2389;DHT22;1205;47.984;7.668;2023-03-14T12:48:06;10.90;98.00
2389;DHT22;1205;47.984;7.668;2023-03-14T12:50:37;10.70;97.60
2389;DHT22;1205;47.984;7.668;2023-03-14T12:55:40;10.50;99.90
2389;DHT22;1205;47.984;7.668;2023-03-14T12:58:16;10.20;99.90
2389;DHT22;1205;47.984;7.668;2023-03-14T13:00:51;9.80;99.90
2389;DHT22;1205;47.984;7.668;2023-03-14T13:03:25;9.80;99.90
2389;DHT22;1205;47.984;7.668;2023-03-14T13:05:57;10.00;99.90
2389;DHT22;1205;47.984;7.668;2023-03-14T13:11:02;10.30;99.90
2389;DHT22;1205;47.984;7.668;2023-03-14T13:13:29;10.30;99.90
2389;DHT22;1205;47.984;7.668;2023-03-14T13:15:57;10.20;99.90
2389;DHT22;1205;47.984;7.668;2023-03-14T13:18:43;10.20;99.90
2389;DHT22;1205;47.984;7.668;2023-03-14T13:21:24;10.20;99.90
2389;DHT22;1205;47.984;7.668;2023-03-14T13:24:06;10.20;99.70
2389;DHT22;1205;47.984;7.668;2023-03-14T13:26:36;10.20;99.70
2389;DHT22;1205;47.984;7.668;2023-03-14T13:29:15;10.20;99.60
2389;DHT22;1205;47.984;7.668;2023-03-14T13:31:50;10.20;99.40
2389;DHT22;1205;47.984;7.668;2023-03-14T13:34:16;10.20;97.00
2389;DHT22;1205;47.984;7.668;2023-03-14T13:36:42;10.30;98.50
2389;DHT22;1205;47.984;7.668;2023-03-14T13:39:16;10.30;96.50
2389;DHT22;1205;47.984;7.668;2023-03-14T13:41:42;10.40;95.40
2389;DHT22;1205;47.984;7.668;2023-03-14T13:44:15;10.20;97.20
2389;DHT22;1205;47.984;7.668;2023-03-14T13:46:41;10.20;95.70
2389;DHT22;1205;47.984;7.668;2023-03-14T13:49:11;10.10;96.20
2389;DHT22;1205;47.984;7.668;2023-03-14T13:51:39;10.00;96.00
2389;DHT22;1205;47.984;7.668;2023-03-14T13:54:14;10.00;95.40
2389;DHT22;1205;47.984;7.668;2023-03-14T13:56:40;10.00;96.80
2389;DHT22;1205;47.984;7.668;2023-03-14T13:59:25;9.90;97.20
2389;DHT22;1205;47.984;7.668;2023-03-14T14:01:52;9.90;97.40
2389;DHT22;1205;47.984;7.668;2023-03-14T14:04:20;9.80;97.50
2389;DHT22;1205;47.984;7.668;2023-03-14T14:09:27;10.00;97.50
2389;DHT22;1205;47.984;7.668;2023-03-14T14:12:17;10.00;97.90
2389;DHT22;1205;47.984;7.668;2023-03-14T14:15:11;10.00;98.70
2389;DHT22;1205;47.984;7.668;2023-03-14T14:17:44;10.00;99.40
2389;DHT22;1205;47.984;7.668;2023-03-14T14:20:22;10.00;98.20
2389;DHT22;1205;47.984;7.668;2023-03-14T14:22:49;9.90;98.90
2389;DHT22;1205;47.984;7.668;2023-03-14T14:25:16;9.90;98.80
2389;DHT22;1205;47.984;7.668;2023-03-14T14:27:44;10.00;99.10
2389;DHT22;1205;47.984;7.668;2023-03-14T14:32:43;10.20;99.10
2389;DHT22;1205;47.984;7.668;2023-03-14T14:35:21;10.20;99.00
2389;DHT22;1205;47.984;7.668;2023-03-14T14:37:48;10.30;98.80
2389;DHT22;1205;47.984;7.668;2023-03-14T14:42:40;10.40;98.10
2389;DHT22;1205;47.984;7.668;2023-03-14T14:45:09;10.40;97.90
2389;DHT22;1205;47.984;7.668;2023-03-14T14:47:51;10.30;98.00
2389;DHT22;1205;47.984;7.668;2023-03-14T14:53:31;10.40;97.20
2389;DHT22;1205;47.984;7.668;2023-03-14T14:56:08;10.30;97.20
2389;DHT22;1205;47.984;7.668;2023-03-14T14:58:41;10.30;97.50
2389;DHT22;1205;47.984;7.668;2023-03-14T15:01:37;10.30;97.20
2389;DHT22;1205;47.984;7.668;2023-03-14T15:04:10;10.40;96.70
2389;DHT22;1205;47.984;7.668;2023-03-14T15:06:37;10.40;96.30
2389;DHT22;1205;47.984;7.668;2023-03-14T15:09:05;10.40;96.40
2389;DHT22;1205;47.984;7.668;2023-03-14T15:11:30;10.30;96.10
2389;DHT22;1205;47.984;7.668;2023-03-14T15:13:56;10.30;96.50
2389;DHT22;1205;47.984;7.668;2023-03-14T15:16:24;10.40;96.80
2389;DHT22;1205;47.984;7.668;2023-03-14T15:18:57;10.30;96.50
2389;DHT22;1205;47.984;7.668;2023-03-14T15:21:24;10.40;96.70
2389;DHT22;1205;47.984;7.668;2023-03-14T15:23:50;10.50;97.00
2389;DHT22;1205;47.984;7.668;2023-03-14T15:26:18;10.50;96.70
2389;DHT22;1205;47.984;7.668;2023-03-14T15:28:44;10.60;97.20
2389;DHT22;1205;47.984;7.668;2023-03-14T15:31:12;10.50;96.00
2389;DHT22;1205;47.984;7.668;2023-03-14T15:33:38;10.60;97.10
2389;DHT22;1205;47.984;7.668;2023-03-14T15:36:13;10.60;97.30
2389;DHT22;1205;47.984;7.668;2023-03-14T15:38:42;10.60;96.10
2389;DHT22;1205;47.984;7.668;2023-03-14T15:41:08;10.60;94.70
2389;DHT22;1205;47.984;7.668;2023-03-14T15:43:34;10.60;95.30
2389;DHT22;1205;47.984;7.668;2023-03-14T15:45:59;10.50;95.90
2389;DHT22;1205;47.984;7.668;2023-03-14T15:48:25;10.60;96.70
2389;DHT22;1205;47.984;7.668;2023-03-14T15:50:51;10.50;96.10
2389;DHT22;1205;47.984;7.668;2023-03-14T15:53:17;10.40;96.30
2389;DHT22;1205;47.984;7.668;2023-03-14T15:55:42;10.40;96.10
2389;DHT22;1205;47.984;7.668;2023-03-14T15:58:16;10.40;96.00
2389;DHT22;1205;47.984;7.668;2023-03-14T16:00:41;10.40;95.90
2389;DHT22;1205;47.984;7.668;2023-03-14T16:03:07;10.40;95.80
2389;DHT22;1205;47.984;7.668;2023-03-14T16:05:33;10.40;96.30
2389;DHT22;1205;47.984;7.668;2023-03-14T16:07:58;10.50;96.20
2389;DHT22;1205;47.984;7.668;2023-03-14T16:10:24;10.50;96.40
2389;DHT22;1205;47.984;7.668;2023-03-14T16:12:50;10.40;98.30
2389;DHT22;1205;47.984;7.668;2023-03-14T16:15:15;10.10;99.60
2389;DHT22;1205;47.984;7.668;2023-03-14T16:17:41;9.80;99.90
2389;DHT22;1205;47.984;7.668;2023-03-14T16:20:09;9.70;99.90
2389;DHT22;1205;47.984;7.668;2023-03-14T16:22:34;9.70;99.90
2389;DHT22;1205;47.984;7.668;2023-03-14T16:25:05;9.60;99.90
2389;DHT22;1205;47.984;7.668;2023-03-14T16:27:31;9.70;99.90
2389;DHT22;1205;47.984;7.668;2023-03-14T16:29:58;9.60;99.90
2389;DHT22;1205;47.984;7.668;2023-03-14T16:32:26;9.70;99.90
2389;DHT22;1205;47.984;7.668;2023-03-14T16:34:53;9.50;99.90
2389;DHT22;1205;47.984;7.668;2023-03-14T16:37:18;9.40;99.90
2389;DHT22;1205;47.984;7.668;2023-03-14T16:39:47;9.30;99.90
2389;DHT22;1205;47.984;7.668;2023-03-14T16:42:14;9.50;99.90
2389;DHT22;1205;47.984;7.668;2023-03-14T16:44:39;9.60;99.90
2389;DHT22;1205;47.984;7.668;2023-03-14T16:47:05;9.60;99.90
2389;DHT22;1205;47.984;7.668;2023-03-14T16:49:31;9.60;99.90
2389;DHT22;1205;47.984;7.668;2023-03-14T16:51:56;9.60;99.90
2389;DHT22;1205;47.984;7.668;2023-03-14T16:54:22;9.60;99.90
2389;DHT22;1205;47.984;7.668;2023-03-14T16:56:48;9.70;99.90
2389;DHT22;1205;47.984;7.668;2023-03-14T16:59:14;9.70;99.90
2389;DHT22;1205;47.984;7.668;2023-03-14T17:01:39;9.70;99.90
2389;DHT22;1205;47.984;7.668;2023-03-14T17:04:07;9.60;99.90
2389;DHT22;1205;47.984;7.668;2023-03-14T17:06:34;9.60;99.90
2389;DHT22;1205;47.984;7.668;2023-03-14T17:09:00;9.60;99.90
2389;DHT22;1205;47.984;7.668;2023-03-14T17:11:29;9.50;99.90